createdAt,value
2018-12-01T04:55:30.815Z,46.07
2018-12-01T04:57:58.473Z,57.40
2018-12-01T05:00:26.159Z,54.87
2018-12-01T05:02:53.779Z,26.97
2018-12-01T05:05:21.846Z,46.03
2018-12-01T05:07:49.628Z,34.47
2018-12-01T05:10:18.064Z,42.40
2018-12-01T05:12:45.708Z,35.07
2018-12-01T05:15:15.059Z,46.33
2018-12-01T05:17:42.717Z,44.60
2018-12-01T05:20:11.249Z,43.13
2018-12-01T05:22:38.849Z,40.70
2018-12-01T05:25:07.086Z,33.03
2018-12-01T05:27:34.761Z,42.80
2018-12-01T05:30:02.489Z,33.37
2018-12-01T05:32:30.155Z,38.83
2018-12-01T05:34:57.838Z,41.53
2018-12-01T05:37:25.454Z,31.20
2018-12-01T05:39:53.120Z,48.60
2018-12-01T05:42:20.734Z,45.67
2018-12-01T05:44:48.428Z,24.43
2018-12-01T05:47:16.097Z,38.53
2018-12-01T05:49:43.799Z,49.63
2018-12-01T05:52:11.441Z,39.57
2018-12-01T05:54:39.138Z,48.90
2018-12-01T05:57:06.782Z,39.03
2018-12-01T05:59:34.468Z,46.93
2018-12-01T06:02:02.207Z,44.43
2018-12-01T06:04:29.842Z,33.80
2018-12-01T06:06:57.560Z,40.20
2018-12-01T06:09:25.194Z,40.63
2018-12-01T06:11:52.970Z,40.37
2018-12-01T06:14:20.649Z,40.47
2018-12-01T06:16:48.284Z,50.23
2018-12-01T06:19:15.919Z,25.70
2018-12-01T06:21:43.594Z,62.20
2018-12-01T06:24:11.204Z,46.20
2018-12-01T06:26:38.871Z,29.87
2018-12-01T06:29:06.575Z,43.70
2018-12-01T06:31:34.231Z,52.50
2018-12-01T06:34:01.873Z,37.63
2018-12-01T06:36:29.568Z,32.40
2018-12-01T06:38:57.190Z,36.40
2018-12-01T06:41:24.804Z,45.60
2018-12-01T06:43:52.430Z,39.40
2018-12-01T06:46:20.108Z,47.93
2018-12-01T06:48:47.749Z,51.20
2018-12-01T06:51:15.432Z,44.87
2018-12-01T06:53:43.095Z,37.53
2018-12-01T06:56:10.813Z,38.17
2018-12-01T06:58:38.433Z,45.03
2018-12-01T07:01:06.113Z,36.47
2018-12-01T07:03:33.796Z,42.80
2018-12-01T07:06:01.506Z,48.17
2018-12-01T07:08:29.140Z,45.80
2018-12-01T07:10:56.849Z,36.23
2018-12-01T07:13:24.523Z,50.83
2018-12-01T07:15:52.182Z,38.00
2018-12-01T07:18:25.262Z,34.37
2018-12-01T07:20:52.997Z,33.60
2018-12-01T07:23:20.672Z,38.27
2018-12-01T07:25:48.310Z,40.47
2018-12-01T07:28:15.918Z,37.50
2018-12-01T07:30:43.553Z,56.90
2018-12-01T07:33:11.372Z,44.47
2018-12-01T07:35:39.049Z,41.87
2018-12-01T07:38:06.815Z,37.87
2018-12-01T07:40:34.383Z,38.23
2018-12-01T07:43:02.037Z,33.97
2018-12-01T07:45:29.601Z,27.87
2018-12-01T07:47:57.285Z,35.23
2018-12-01T07:50:24.917Z,45.53
2018-12-01T07:52:53.217Z,41.43
2018-12-01T07:55:20.843Z,43.50
2018-12-01T07:57:48.669Z,43.63
2018-12-01T08:00:17.487Z,37.23
2018-12-01T08:02:45.975Z,41.00
2018-12-01T08:05:13.788Z,40.60
2018-12-01T08:07:41.559Z,36.57
2018-12-01T08:10:09.867Z,40.67
2018-12-01T08:12:37.636Z,43.97
2018-12-01T08:15:07.215Z,35.57
2018-12-01T08:17:35.942Z,39.17
2018-12-01T08:20:04.910Z,41.43
2018-12-01T08:22:32.761Z,47.83
2018-12-01T08:25:00.577Z,40.10
2018-12-01T08:27:28.547Z,61.80
2018-12-01T08:29:56.343Z,34.87
2018-12-01T08:32:24.053Z,45.30
2018-12-01T08:34:51.759Z,47.13
2018-12-01T08:37:19.536Z,46.67
2018-12-01T08:39:48.995Z,38.07
2018-12-01T08:42:16.853Z,30.90
2018-12-01T08:44:44.673Z,34.77
2018-12-01T08:47:12.462Z,50.07
2018-12-01T08:49:40.389Z,53.83
2018-12-01T08:52:08.168Z,51.10
2018-12-01T08:54:35.926Z,48.80
2018-12-01T08:57:06.976Z,47.03
2018-12-01T08:59:35.151Z,33.33
2018-12-01T09:02:03.713Z,39.03
2018-12-01T09:04:31.507Z,34.33
2018-12-01T09:06:59.294Z,39.17
2018-12-01T09:09:27.750Z,46.67
2018-12-01T09:11:55.433Z,36.57
2018-12-01T09:14:23.537Z,31.70
2018-12-01T09:16:51.270Z,31.37
2018-12-01T09:19:21.640Z,43.10
2018-12-01T09:21:49.306Z,43.63
2018-12-01T09:24:17.106Z,35.17
2018-12-01T09:26:44.762Z,40.10
2018-12-01T09:29:12.448Z,35.60
2018-12-01T09:31:40.088Z,41.17
2018-12-01T09:34:07.881Z,38.97
2018-12-01T09:36:35.571Z,41.87
2018-12-01T09:39:03.337Z,36.80
2018-12-01T09:41:31.011Z,31.90
2018-12-01T09:43:58.717Z,35.63
2018-12-01T09:46:26.338Z,38.20
2018-12-01T09:48:53.993Z,28.93
2018-12-01T09:51:21.640Z,16.10
2018-12-01T09:53:49.430Z,41.93
2018-12-01T09:56:17.213Z,37.67
2018-12-01T09:58:45.165Z,34.07
2018-12-01T10:01:13.024Z,33.30
2018-12-01T10:03:40.776Z,39.63
2018-12-01T10:06:08.475Z,38.27
2018-12-01T10:08:36.216Z,41.80
2018-12-01T10:11:03.961Z,35.90
2018-12-01T10:13:31.732Z,41.33
2018-12-01T10:15:59.484Z,43.60
2018-12-01T10:18:27.248Z,34.13
2018-12-01T10:20:54.943Z,38.40
2018-12-01T10:23:22.660Z,36.10
2018-12-01T10:25:50.347Z,32.60
2018-12-01T10:28:18.349Z,37.40
2018-12-01T10:30:45.936Z,30.00
2018-12-01T10:33:13.985Z,36.07
2018-12-01T10:35:41.856Z,32.40
2018-12-01T10:38:11.148Z,31.10
2018-12-01T10:40:38.876Z,30.63
2018-12-01T10:43:06.833Z,28.13
2018-12-01T10:45:34.558Z,30.00
2018-12-01T10:48:02.193Z,32.00
2018-12-01T10:50:29.926Z,36.20
2018-12-01T10:52:57.640Z,28.37
2018-12-01T10:55:31.710Z,35.97
2018-12-01T10:58:02.846Z,35.60
2018-12-01T11:00:36.267Z,27.73
2018-12-01T11:03:05.640Z,32.90
2018-12-01T11:05:33.979Z,33.77
2018-12-01T11:08:01.676Z,31.60
2018-12-01T11:10:29.377Z,35.63
2018-12-01T11:12:57.089Z,34.40
2018-12-01T11:15:24.820Z,29.13
2018-12-01T11:17:52.581Z,39.50
2018-12-01T11:20:20.243Z,31.27
2018-12-01T11:22:47.963Z,37.77
2018-12-01T11:25:15.649Z,44.23
2018-12-01T11:27:43.375Z,38.30
2018-12-01T11:30:13.335Z,40.17
2018-12-01T11:32:41.116Z,31.37
2018-12-01T11:35:09.223Z,24.33
2018-12-01T11:37:37.157Z,34.60
2018-12-01T11:40:06.023Z,21.73
2018-12-01T11:42:33.717Z,30.40
2018-12-01T11:45:01.424Z,18.60
2018-12-01T11:47:29.744Z,27.77
2018-12-01T11:49:57.482Z,30.10
2018-12-01T11:52:25.278Z,26.90
2018-12-01T11:54:53.041Z,27.80
2018-12-01T11:57:20.760Z,33.23
2018-12-01T11:59:48.513Z,30.30
2018-12-01T12:02:16.330Z,29.37
2018-12-01T12:04:44.068Z,32.57
2018-12-01T12:07:17.301Z,34.30
2018-12-01T12:09:44.996Z,32.70
2018-12-01T12:12:12.923Z,31.90
2018-12-01T12:14:40.848Z,36.47
2018-12-01T12:17:08.623Z,31.80
2018-12-01T12:19:36.426Z,33.53
2018-12-01T12:22:04.234Z,34.10
2018-12-01T12:24:31.847Z,43.60
2018-12-01T12:26:59.625Z,32.83
2018-12-01T12:29:27.368Z,41.20
2018-12-01T12:31:55.168Z,34.00
2018-12-01T12:34:22.973Z,35.13
2018-12-01T12:36:50.658Z,32.03
2018-12-01T12:39:18.271Z,39.70
2018-12-01T12:41:46.045Z,39.30
2018-12-01T12:44:13.761Z,35.13
2018-12-01T12:46:41.491Z,35.90
2018-12-01T12:49:09.184Z,37.37
2018-12-01T12:51:37.366Z,34.27
2018-12-01T12:54:05.772Z,34.87
2018-12-01T12:56:33.524Z,32.83
2018-12-01T12:59:01.183Z,42.60
2018-12-01T13:01:28.830Z,40.73
2018-12-01T13:03:56.519Z,35.17
2018-12-01T13:06:24.335Z,38.87
2018-12-01T13:08:51.956Z,53.97
2018-12-01T13:11:19.708Z,31.87
2018-12-01T13:13:47.671Z,33.77
2018-12-01T13:16:15.336Z,33.90
2018-12-01T13:18:43.025Z,31.73
2018-12-01T13:21:10.695Z,32.77
2018-12-01T13:23:38.425Z,38.77
2018-12-01T13:26:06.185Z,34.67
2018-12-01T13:28:33.940Z,28.80
2018-12-01T13:31:01.683Z,31.30
2018-12-01T13:33:29.368Z,31.30
2018-12-01T13:35:57.346Z,35.47
2018-12-01T13:38:25.190Z,38.17
2018-12-01T13:40:53.236Z,48.30
2018-12-01T13:43:20.923Z,33.00
2018-12-01T13:45:48.629Z,32.10
2018-12-01T13:48:16.368Z,41.63
2018-12-01T13:50:44.168Z,33.37
2018-12-01T13:53:12.478Z,30.53
2018-12-01T13:55:40.253Z,41.10
2018-12-01T13:58:08.066Z,32.97
2018-12-01T14:00:36.266Z,37.83
2018-12-01T14:03:04.173Z,42.00
2018-12-01T14:05:31.946Z,42.27
2018-12-01T14:07:59.759Z,32.50
2018-12-01T14:10:28.006Z,35.30
2018-12-01T14:12:59.379Z,30.53
2018-12-01T14:15:27.457Z,35.43
2018-12-01T14:17:55.177Z,32.40
2018-12-01T14:20:23.930Z,34.57
2018-12-01T14:22:51.669Z,32.63
2018-12-01T14:25:19.983Z,28.00
2018-12-01T14:27:49.307Z,37.03
2018-12-01T14:30:17.161Z,36.30
2018-12-01T14:32:45.076Z,52.63
2018-12-01T14:35:44.668Z,29.00
2018-12-01T14:38:15.024Z,37.60
2018-12-01T14:40:43.461Z,37.63
2018-12-01T14:43:11.210Z,32.33
2018-12-01T14:45:38.961Z,35.10
2018-12-01T14:48:07.541Z,30.40
2018-12-01T14:50:35.205Z,29.50
2018-12-01T14:53:02.928Z,28.97
2018-12-01T14:55:30.568Z,30.40
2018-12-01T14:57:58.229Z,33.33
2018-12-01T15:00:26.337Z,28.20
2018-12-01T15:02:54.574Z,29.60
2018-12-01T15:05:22.412Z,32.50
2018-12-01T15:07:50.331Z,27.97
2018-12-01T15:10:18.460Z,36.63
2018-12-01T15:12:46.489Z,35.27
2018-12-01T15:15:14.757Z,30.53
2018-12-01T15:17:42.518Z,46.63
2018-12-01T15:20:11.603Z,42.40
2018-12-01T15:22:40.139Z,39.03
2018-12-01T15:25:08.853Z,36.23
2018-12-01T15:27:36.640Z,38.83
2018-12-01T15:30:05.641Z,33.47
2018-12-01T15:32:33.385Z,39.50
2018-12-01T15:35:01.057Z,43.27
2018-12-01T15:37:28.767Z,42.93
2018-12-01T15:39:57.147Z,32.83
2018-12-01T15:42:25.931Z,32.90
2018-12-01T15:44:53.637Z,42.33
2018-12-01T15:47:21.385Z,37.90
2018-12-01T15:49:49.223Z,40.13
2018-12-01T15:52:17.038Z,39.77
2018-12-01T15:54:44.759Z,35.80
2018-12-01T15:57:12.380Z,37.73
2018-12-01T15:59:40.534Z,34.80
2018-12-01T16:02:08.184Z,45.67
2018-12-01T16:04:35.853Z,68.70
2018-12-01T16:07:03.536Z,41.00
2018-12-01T16:09:31.161Z,34.43
2018-12-01T16:11:58.773Z,50.00
2018-12-01T16:14:26.520Z,38.60
2018-12-01T16:16:54.236Z,42.57
2018-12-01T16:19:22.193Z,35.90
2018-12-01T16:21:49.793Z,31.60
2018-12-01T16:24:17.479Z,36.07
2018-12-01T16:26:45.122Z,39.30
2018-12-01T16:29:12.903Z,34.07
2018-12-01T16:31:40.619Z,39.10
2018-12-01T16:34:08.360Z,33.23
2018-12-01T16:36:36.109Z,34.60
2018-12-01T16:39:04.243Z,40.00
2018-12-01T16:41:33.491Z,38.57
2018-12-01T16:44:01.242Z,39.27
2018-12-01T16:46:28.948Z,42.80
2018-12-01T16:48:56.629Z,35.47
2018-12-01T16:51:24.393Z,39.73
2018-12-01T16:53:52.076Z,45.17
2018-12-01T16:56:19.715Z,31.20
2018-12-01T16:58:47.528Z,30.07
2018-12-01T17:01:15.291Z,36.77
2018-12-01T17:03:42.947Z,35.00
2018-12-01T17:06:12.026Z,37.50
2018-12-01T17:08:40.044Z,29.80
2018-12-01T17:11:08.354Z,29.73
2018-12-01T17:13:36.047Z,30.47
2018-12-01T17:16:03.669Z,34.70
2018-12-01T17:18:31.372Z,32.30
2018-12-01T17:20:59.112Z,28.57
2018-12-01T17:23:26.800Z,29.03
2018-12-01T17:25:54.563Z,36.33
2018-12-01T17:28:22.260Z,35.30
2018-12-01T17:30:50.058Z,29.23
2018-12-01T17:33:17.825Z,33.60
2018-12-01T17:35:45.494Z,39.00
2018-12-01T17:38:14.937Z,24.77
2018-12-01T17:40:45.456Z,27.20
2018-12-01T17:43:14.398Z,29.57
2018-12-01T17:45:42.046Z,32.80
2018-12-01T17:48:09.656Z,28.67
2018-12-01T17:50:37.363Z,30.77
2018-12-01T17:53:10.214Z,34.40
2018-12-01T17:55:32.751Z,34.40
2018-12-01T17:58:00.517Z,23.80
2018-12-01T18:00:28.856Z,28.80
2018-12-01T18:02:57.211Z,27.77
2018-12-01T18:05:32.516Z,32.67
2018-12-01T18:08:00.244Z,33.20
2018-12-01T18:10:27.914Z,29.63
2018-12-01T18:12:55.711Z,29.10
2018-12-01T18:15:23.391Z,32.97
2018-12-01T18:17:51.187Z,23.53
2018-12-01T18:20:20.745Z,33.20
2018-12-01T18:22:53.104Z,19.77
2018-12-01T18:25:20.861Z,25.20
2018-12-01T18:27:49.176Z,18.10
2018-12-01T18:30:18.010Z,26.93
2018-12-01T18:32:46.368Z,26.93
2018-12-01T18:35:14.184Z,26.67
2018-12-01T18:37:41.850Z,24.33
2018-12-01T18:40:11.709Z,26.23
2018-12-01T18:42:39.466Z,28.37
2018-12-01T18:45:09.282Z,23.70
2018-12-01T18:47:36.989Z,26.87
2018-12-01T18:50:05.577Z,25.83
2018-12-01T18:52:33.285Z,28.43
2018-12-01T18:55:00.897Z,26.83
2018-12-01T18:57:28.638Z,17.60
2018-12-01T18:59:56.462Z,22.80
2018-12-01T19:02:24.144Z,36.60
2018-12-01T19:04:51.847Z,21.27
2018-12-01T19:07:19.553Z,19.90
2018-12-01T19:09:47.348Z,23.87
2018-12-01T19:12:15.003Z,19.03
2018-12-01T19:14:42.713Z,27.03
2018-12-01T19:17:10.460Z,19.47
2018-12-01T19:19:38.220Z,22.53
2018-12-01T19:22:05.877Z,23.47
2018-12-01T19:24:33.569Z,18.63
2018-12-01T19:27:01.245Z,17.17
2018-12-01T19:29:28.955Z,19.83
2018-12-01T19:31:56.714Z,18.40
2018-12-01T19:34:24.405Z,30.63
2018-12-01T19:36:52.063Z,25.70
2018-12-01T19:39:19.744Z,24.47
2018-12-01T19:41:47.491Z,26.30
2018-12-01T19:44:15.166Z,16.50
2018-12-01T19:46:42.873Z,18.37
2018-12-01T19:49:10.608Z,21.60
2018-12-01T19:51:38.345Z,17.50
2018-12-01T19:54:06.745Z,17.47
2018-12-01T19:56:34.443Z,21.83
2018-12-01T19:59:02.065Z,17.20
2018-12-01T20:01:29.710Z,19.27
2018-12-01T20:03:57.429Z,15.43
2018-12-01T20:06:25.168Z,22.33
2018-12-01T20:08:52.948Z,23.13
2018-12-01T20:11:21.435Z,19.90
2018-12-01T20:13:49.192Z,14.13
2018-12-01T20:16:18.596Z,22.70
2018-12-01T20:18:46.192Z,18.77
2018-12-01T20:21:13.832Z,20.80
2018-12-01T20:23:41.535Z,16.90
2018-12-01T20:26:09.149Z,14.10
2018-12-01T20:28:36.883Z,12.47
2018-12-01T20:31:04.604Z,13.03
2018-12-01T20:33:32.280Z,14.33
2018-12-01T20:36:08.510Z,18.93
2018-12-01T20:38:34.897Z,11.00
2018-12-01T20:41:02.526Z,16.40
2018-12-01T20:43:30.207Z,13.33
2018-12-01T20:45:57.971Z,16.43
2018-12-01T20:48:25.716Z,17.23
2018-12-01T20:50:53.485Z,14.90
2018-12-01T20:53:21.574Z,23.00
2018-12-01T20:55:50.590Z,16.07
2018-12-01T20:58:18.293Z,15.87
2018-12-01T21:00:46.021Z,11.70
2018-12-01T21:03:13.654Z,18.73
2018-12-01T21:05:41.318Z,13.43
2018-12-01T21:08:09.134Z,14.00
2018-12-01T21:10:38.028Z,15.47
2018-12-01T21:13:06.890Z,12.90
2018-12-01T21:15:34.718Z,15.13
2018-12-01T21:18:02.455Z,19.73
2018-12-01T21:20:30.148Z,17.20
2018-12-01T21:22:57.985Z,12.60
2018-12-01T21:25:26.990Z,14.40
2018-12-01T21:27:55.586Z,16.27
2018-12-01T21:30:23.841Z,13.37
2018-12-01T21:32:53.949Z,10.63
2018-12-01T21:35:21.629Z,13.27
2018-12-01T21:37:49.658Z,13.73
2018-12-01T21:40:18.165Z,16.33
2018-12-01T21:42:45.853Z,13.10
2018-12-01T21:45:14.119Z,9.37
2018-12-01T21:47:41.927Z,13.60
2018-12-01T21:50:11.345Z,12.27
2018-12-01T21:52:39.071Z,12.93
2018-12-01T21:55:07.948Z,11.10
2018-12-01T21:57:35.732Z,11.40
2018-12-01T22:00:03.549Z,11.50
2018-12-01T22:02:31.221Z,12.60
2018-12-01T22:04:59.022Z,17.43
2018-12-01T22:07:26.704Z,10.47
2018-12-01T22:09:55.139Z,15.83
2018-12-01T22:12:22.783Z,13.20
2018-12-01T22:14:50.509Z,20.67
2018-12-01T22:17:18.171Z,8.07
2018-12-01T22:19:45.881Z,10.37
2018-12-01T22:22:15.502Z,15.20
2018-12-01T22:24:42.511Z,17.70
2018-12-01T22:27:10.311Z,12.00
2018-12-01T22:29:38.097Z,10.17
2018-12-01T22:32:06.744Z,8.30
2018-12-01T22:34:34.512Z,13.80
2018-12-01T22:37:02.282Z,11.83
2018-12-01T22:39:29.959Z,15.00
2018-12-01T22:41:57.626Z,12.97
2018-12-01T22:44:25.270Z,8.07
2018-12-01T22:46:52.911Z,11.90
2018-12-01T22:49:20.584Z,10.37
2018-12-01T22:51:48.253Z,6.97
2018-12-01T22:54:15.925Z,11.57
2018-12-01T22:56:43.651Z,9.40
2018-12-01T22:59:11.279Z,12.53
2018-12-01T23:01:39.018Z,14.50
2018-12-01T23:04:06.763Z,11.13
2018-12-01T23:06:34.423Z,12.40
2018-12-01T23:09:02.194Z,18.30
2018-12-01T23:11:29.929Z,7.13
2018-12-01T23:13:57.763Z,8.13
2018-12-01T23:16:25.526Z,9.50
2018-12-01T23:18:53.122Z,9.00
2018-12-01T23:21:20.811Z,11.57
